Time;durP1;ratioP1;P1;durP2;ratioP2;P2;SDS_P1;SDS_P2;PMS_P1;PMS_P2;Temp;Humidity;BMP_temperature;BMP_pressure;BME280_temperature;BME280_humidity;BME280_pressure;Samples;Min_cycle;Max_cycle;Signal;HPM_P1;HPM_P2
2023/07/30 00:02:16;;;;;;;31.73;6.03;;;27.70;53.90;;;;;;5044010;28;20208;-66
2023/07/30 00:04:43;;;;;;;35.03;6.40;;;27.70;53.90;;;;;;5044364;28;20200;-66
2023/07/30 00:07:11;;;;;;;34.67;6.33;;;27.70;53.90;;;;;;5029020;28;20668;-64
2023/07/30 00:09:37;;;;;;;30.60;6.30;;;27.60;53.80;;;;;;5024647;28;20205;-66
2023/07/30 00:12:07;;;;;;;38.10;6.47;;;27.60;53.80;;;;;;5024645;28;20200;-64
2023/07/30 00:14:34;;;;;;;37.83;6.47;;;27.60;53.80;;;;;;5024433;28;20219;-66
2023/07/30 00:17:02;;;;;;;34.10;6.30;;;27.70;53.90;;;;;;5024159;28;20212;-67
2023/07/30 00:19:29;;;;;;;32.87;6.20;;;27.70;53.90;;;;;;5026650;28;20197;-69
2023/07/30 00:21:56;;;;;;;39.27;6.60;;;27.60;53.80;;;;;;5027886;28;20217;-70
2023/07/30 00:24:23;;;;;;;39.70;6.73;;;27.60;53.80;;;;;;5027639;28;20205;-65
2023/07/30 00:26:50;;;;;;;28.30;6.00;;;27.60;53.80;;;;;;5026688;28;20201;-66
2023/07/30 00:29:18;;;;;;;35.73;6.40;;;27.60;53.80;;;;;;5043283;28;20204;-67
2023/07/30 00:31:45;;;;;;;37.20;6.20;;;27.60;53.80;;;;;;5033313;28;20668;-65
2023/07/30 00:34:12;;;;;;;36.60;6.53;;;27.60;53.80;;;;;;5028394;28;20204;-70
2023/07/30 00:36:39;;;;;;;36.17;6.50;;;27.60;53.80;;;;;;5027787;28;20291;-72
2023/07/30 00:39:06;;;;;;;31.37;5.93;;;27.60;53.80;;;;;;5026897;28;20197;-73
2023/07/30 00:41:33;;;;;;;35.47;6.33;;;27.60;53.80;;;;;;5026526;28;20848;-69
2023/07/30 00:44:02;;;;;;;35.53;6.10;;;27.60;53.80;;;;;;5044727;28;20197;-73
2023/07/30 00:46:30;;;;;;;33.33;6.23;;;27.50;53.70;;;;;;5047253;28;20204;-70
2023/07/30 00:48:57;;;;;;;28.33;5.30;;;27.60;53.80;;;;;;5047329;28;20214;-64
2023/07/30 00:51:25;;;;;;;28.73;6.20;;;27.60;53.80;;;;;;5047249;28;20208;-64
2023/07/30 00:53:51;;;;;;;33.93;6.07;;;27.50;53.70;;;;;;5045800;28;20240;-65
2023/07/30 00:56:18;;;;;;;22.23;5.30;;;27.50;53.70;;;;;;5047745;28;20196;-69
2023/07/30 00:58:48;;;;;;;28.33;5.97;;;27.50;53.70;;;;;;5047019;28;20204;-65
2023/07/30 01:01:16;;;;;;;30.70;5.90;;;27.50;53.70;;;;;;5034471;28;20239;-65
2023/07/30 01:03:44;;;;;;;37.40;6.33;;;27.50;53.70;;;;;;5026559;28;20207;-74
2023/07/30 01:06:11;;;;;;;35.27;6.33;;;27.50;53.70;;;;;;5027204;28;20195;-66
2023/07/30 01:08:38;;;;;;;30.57;5.50;;;27.50;53.70;;;;;;5026975;28;20212;-70
2023/07/30 01:11:06;;;;;;;34.07;6.10;;;27.50;53.70;;;;;;5026342;28;20661;-66
2023/07/30 01:13:34;;;;;;;34.63;6.23;;;27.50;53.70;;;;;;5026593;28;20614;-74
2023/07/30 01:16:01;;;;;;;36.03;6.00;;;27.50;53.70;;;;;;5027396;28;20185;-64
2023/07/30 01:18:28;;;;;;;40.30;7.00;;;27.50;53.70;;;;;;5026690;28;20208;-65
2023/07/30 01:20:59;;;;;;;25.60;5.27;;;27.40;53.60;;;;;;5025684;28;20330;-66
2023/07/30 01:23:26;;;;;;;32.90;6.13;;;27.40;53.60;;;;;;5034776;28;20197;-67
2023/07/30 01:26:00;;;;;;;38.13;6.87;;;27.50;53.70;;;;;;5045653;28;20261;-67
2023/07/30 01:28:28;;;;;;;30.10;5.60;;;27.50;53.70;;;;;;5046486;27;20204;-73
2023/07/30 01:30:56;;;;;;;39.07;6.67;;;27.50;53.70;;;;;;5025542;28;20220;-64
2023/07/30 01:33:23;;;;;;;37.20;6.10;;;27.40;53.70;;;;;;5026434;28;20287;-65
2023/07/30 01:35:51;;;;;;;45.37;7.07;;;27.50;53.70;;;;;;5025694;28;20197;-64
2023/07/30 01:38:19;;;;;;;36.83;6.50;;;27.40;53.70;;;;;;5006655;28;20228;-73
2023/07/30 01:40:46;;;;;;;35.67;6.23;;;27.40;54.30;;;;;;5006788;28;20233;-73
2023/07/30 01:43:13;;;;;;;42.23;6.57;;;27.40;53.70;;;;;;5013835;28;20197;-64
2023/07/30 01:45:41;;;;;;;40.23;6.37;;;27.40;53.70;;;;;;5025177;28;20209;-64
2023/07/30 01:48:08;;;;;;;32.07;5.57;;;27.30;53.60;;;;;;5026512;28;20201;-64
2023/07/30 01:50:34;;;;;;;34.50;5.77;;;27.40;53.70;;;;;;5026519;28;20212;-67
2023/07/30 01:53:01;;;;;;;28.13;5.27;;;27.40;53.70;;;;;;5027607;28;20225;-71
2023/07/30 01:55:29;;;;;;;51.47;7.87;;;27.40;53.70;;;;;;5046139;28;20208;-64
2023/07/30 01:57:56;;;;;;;40.60;6.73;;;27.40;53.70;;;;;;5041583;28;20201;-64
2023/07/30 02:00:23;;;;;;;36.93;6.57;;;27.40;53.70;;;;;;5025025;28;20193;-70
2023/07/30 02:02:50;;;;;;;34.83;6.13;;;27.40;53.70;;;;;;5024898;28;20200;-67
2023/07/30 02:05:17;;;;;;;30.93;5.97;;;27.40;53.80;;;;;;5026084;28;20209;-66
2023/07/30 02:07:44;;;;;;;38.00;6.33;;;27.30;53.70;;;;;;5026412;28;20201;-73
2023/07/30 02:10:11;;;;;;;30.20;5.63;;;27.30;53.70;;;;;;5026460;28;20193;-70
2023/07/30 02:12:39;;;;;;;28.50;5.47;;;27.30;53.70;;;;;;5026727;28;20216;-71
2023/07/30 02:15:07;;;;;;;36.07;6.27;;;27.30;54.30;;;;;;5025989;28;20704;-63
2023/07/30 02:17:34;;;;;;;26.10;5.47;;;27.30;53.70;;;;;;5026668;28;20212;-67
2023/07/30 02:20:01;;;;;;;36.40;6.27;;;27.40;53.80;;;;;;5026335;28;20193;-66
2023/07/30 02:22:28;;;;;;;31.17;6.30;;;27.30;53.70;;;;;;5025566;28;20237;-64
2023/07/30 02:24:57;;;;;;;32.50;6.33;;;27.30;53.70;;;;;;5005960;28;20206;-75
2023/07/30 02:27:23;;;;;;;31.37;5.93;;;27.30;53.70;;;;;;5008486;28;20212;-64
2023/07/30 02:29:52;;;;;;;36.63;6.20;;;27.30;53.70;;;;;;5024782;28;20650;-66
2023/07/30 02:32:18;;;;;;;31.30;5.80;;;27.30;53.70;;;;;;5045781;28;20572;-65
2023/07/30 02:34:45;;;;;;;29.93;5.70;;;27.30;53.70;;;;;;5034021;28;20208;-65
2023/07/30 02:37:12;;;;;;;35.73;6.47;;;27.30;53.70;;;;;;5026124;28;20197;-67
2023/07/30 02:39:40;;;;;;;31.93;5.90;;;27.30;53.70;;;;;;5024748;28;20207;-69
2023/07/30 02:42:07;;;;;;;31.80;5.87;;;27.30;53.70;;;;;;5024635;28;20604;-69
2023/07/30 02:44:34;;;;;;;38.47;6.83;;;27.30;53.70;;;;;;5026175;28;20195;-74
2023/07/30 02:47:03;;;;;;;37.03;6.07;;;27.30;53.70;;;;;;5025610;28;20208;-70
2023/07/30 02:49:29;;;;;;;32.20;5.87;;;27.30;54.30;;;;;;5026004;28;20204;-71
2023/07/30 02:51:56;;;;;;;23.77;5.23;;;27.30;53.70;;;;;;5026243;28;20200;-71
2023/07/30 02:54:23;;;;;;;37.23;6.93;;;27.30;53.70;;;;;;5040335;28;20226;-68
2023/07/30 02:56:50;;;;;;;36.17;6.10;;;27.30;53.70;;;;;;5045963;28;20215;-70
2023/07/30 02:59:17;;;;;;;32.20;5.90;;;27.30;53.70;;;;;;5025228;28;20193;-64
2023/07/30 03:01:44;;;;;;;32.17;6.10;;;27.30;53.70;;;;;;5025471;28;20237;-75
2023/07/30 03:04:12;;;;;;;37.63;6.47;;;27.20;53.60;;;;;;5025515;28;20292;-73
2023/07/30 03:06:39;;;;;;;32.23;5.93;;;27.20;53.70;;;;;;5025581;28;20201;-64
2023/07/30 03:09:07;;;;;;;33.87;6.20;;;27.20;53.70;;;;;;5024416;28;20197;-73
2023/07/30 03:11:34;;;;;;;30.60;6.30;;;27.30;53.70;;;;;;5024879;28;20208;-70
2023/07/30 03:14:00;;;;;;;33.27;6.30;;;27.20;54.20;;;;;;5023806;28;20236;-66
2023/07/30 03:16:27;;;;;;;29.93;5.60;;;27.20;53.70;;;;;;5036456;28;20204;-72
2023/07/30 03:18:54;;;;;;;34.33;6.37;;;27.20;53.70;;;;;;5045111;28;20572;-71
2023/07/30 03:21:22;;;;;;;41.80;7.03;;;27.20;53.70;;;;;;5044905;28;20242;-70
2023/07/30 03:23:49;;;;;;;29.40;5.53;;;27.20;53.70;;;;;;5044813;28;20211;-64
2023/07/30 03:26:16;;;;;;;28.13;5.83;;;27.20;53.70;;;;;;5035213;28;20197;-73
2023/07/30 03:28:43;;;;;;;33.00;5.90;;;27.20;53.70;;;;;;5025285;28;20212;-65
2023/07/30 03:31:10;;;;;;;34.47;6.10;;;27.20;53.70;;;;;;5024984;28;20220;-70
2023/07/30 03:33:39;;;;;;;31.37;5.57;;;27.20;53.70;;;;;;5025440;28;20212;-72
2023/07/30 03:36:06;;;;;;;30.60;5.87;;;27.20;53.70;;;;;;5024464;28;20279;-76
2023/07/30 03:38:34;;;;;;;30.70;5.97;;;27.20;53.70;;;;;;5024897;28;20185;-68
2023/07/30 03:41:01;;;;;;;29.07;5.67;;;27.20;53.70;;;;;;5025339;28;20233;-68
2023/07/30 03:43:27;;;;;;;33.20;6.47;;;27.20;53.70;;;;;;5025110;28;20218;-72
2023/07/30 03:45:54;;;;;;;36.70;6.33;;;27.20;53.70;;;;;;5023478;28;20201;-76
2023/07/30 03:48:21;;;;;;;33.10;6.40;;;27.20;53.70;;;;;;5024855;28;20196;-64
2023/07/30 03:50:48;;;;;;;32.57;6.03;;;27.20;53.70;;;;;;5024390;28;20219;-65
2023/07/30 03:53:15;;;;;;;25.73;5.43;;;27.20;53.80;;;;;;5024112;28;20225;-64
2023/07/30 03:55:43;;;;;;;26.57;5.77;;;27.10;53.70;;;;;;5023714;28;20192;-64
2023/07/30 03:58:10;;;;;;;29.17;5.73;;;27.20;53.80;;;;;;5023093;28;20667;-64
2023/07/30 04:00:37;;;;;;;25.83;5.37;;;27.10;53.70;;;;;;5024944;28;20201;-64
2023/07/30 04:03:04;;;;;;;35.17;6.27;;;27.10;53.70;;;;;;5024568;28;20240;-65
2023/07/30 04:05:31;;;;;;;43.70;6.87;;;27.10;53.80;;;;;;5023585;28;20680;-64
2023/07/30 04:07:58;;;;;;;50.23;7.40;;;27.20;53.80;;;;;;5020549;28;20233;-78
2023/07/30 04:10:24;;;;;;;30.80;5.63;;;27.10;53.80;;;;;;5023283;28;20205;-74
2023/07/30 04:12:53;;;;;;;22.37;4.80;;;27.20;53.80;;;;;;5023878;28;20201;-74
2023/07/30 04:15:20;;;;;;;42.13;6.63;;;27.10;53.80;;;;;;5023844;28;20227;-76
2023/07/30 04:17:46;;;;;;;21.33;4.90;;;27.20;53.90;;;;;;5044319;28;20219;-76
2023/07/30 04:20:13;;;;;;;34.07;5.97;;;27.10;53.80;;;;;;5028226;28;20819;-76
2023/07/30 04:22:41;;;;;;;36.80;7.07;;;27.10;53.80;;;;;;5024333;28;20224;-72
2023/07/30 04:25:10;;;;;;;27.30;5.43;;;27.10;53.80;;;;;;5024215;28;20270;-72
2023/07/30 04:27:37;;;;;;;30.40;5.60;;;27.10;53.80;;;;;;5024698;28;20204;-65
2023/07/30 04:30:07;;;;;;;50.10;7.57;;;27.10;53.80;;;;;;5023763;28;20190;-66
2023/07/30 04:32:34;;;;;;;40.07;6.67;;;27.10;53.90;;;;;;5021634;28;20749;-78
2023/07/30 04:35:02;;;;;;;55.63;8.00;;;27.10;53.80;;;;;;5024385;28;20204;-78
2023/07/30 04:37:29;;;;;;;32.43;6.17;;;27.10;53.80;;;;;;5023895;28;20205;-68
2023/07/30 04:39:57;;;;;;;29.33;6.17;;;27.10;53.80;;;;;;5024536;28;20205;-64
2023/07/30 04:42:24;;;;;;;37.27;6.40;;;27.10;53.90;;;;;;5023076;28;20229;-64
2023/07/30 04:44:51;;;;;;;29.90;5.80;;;27.10;53.80;;;;;;5024170;28;20211;-66
2023/07/30 04:47:19;;;;;;;36.50;6.33;;;27.10;53.80;;;;;;5022318;28;20208;-67
2023/07/30 04:49:46;;;;;;;32.20;6.30;;;27.10;53.80;;;;;;5041510;28;20212;-75
2023/07/30 04:52:13;;;;;;;40.10;6.73;;;27.10;53.90;;;;;;5037939;28;20685;-69
2023/07/30 04:54:40;;;;;;;30.53;5.67;;;27.10;53.80;;;;;;5024316;28;20262;-64
2023/07/30 04:57:07;;;;;;;22.97;5.00;;;27.10;53.80;;;;;;5024476;28;20197;-65
2023/07/30 04:59:34;;;;;;;30.77;5.97;;;27.10;53.80;;;;;;5024090;28;20204;-63
2023/07/30 05:02:01;;;;;;;26.77;5.63;;;27.10;53.80;;;;;;5023738;28;20225;-66
2023/07/30 05:04:29;;;;;;;27.33;5.37;;;27.00;54.40;;;;;;5028573;28;20211;-65
2023/07/30 05:06:56;;;;;;;21.23;4.97;;;27.10;53.80;;;;;;5046484;28;20208;-67
2023/07/30 05:09:23;;;;;;;27.50;6.00;;;27.00;53.80;;;;;;5046171;28;20208;-64
2023/07/30 05:11:49;;;;;;;30.60;5.70;;;27.10;53.80;;;;;;5026755;28;20205;-64
2023/07/30 05:14:16;;;;;;;22.60;5.40;;;27.10;53.80;;;;;;5023847;28;20231;-64
2023/07/30 05:16:43;;;;;;;37.47;6.60;;;27.10;53.80;;;;;;5040021;27;20204;-64
2023/07/30 05:19:10;;;;;;;32.33;5.90;;;27.00;53.80;;;;;;5053769;27;20193;-64
2023/07/30 05:21:38;;;;;;;31.97;6.43;;;27.00;54.40;;;;;;5026753;28;20236;-64
2023/07/30 05:24:05;;;;;;;21.43;5.07;;;27.00;53.80;;;;;;5026225;28;20204;-65
2023/07/30 05:26:32;;;;;;;21.23;5.10;;;27.00;53.80;;;;;;5027324;28;20209;-66
2023/07/30 05:28:59;;;;;;;31.87;6.30;;;27.00;53.80;;;;;;5026851;28;20209;-67
2023/07/30 05:31:26;;;;;;;23.63;5.27;;;27.00;53.80;;;;;;5040057;28;20584;-67
2023/07/30 05:33:53;;;;;;;27.63;5.60;;;27.00;53.80;;;;;;5046843;28;20212;-64
2023/07/30 05:36:20;;;;;;;26.97;5.60;;;27.00;53.80;;;;;;5050539;27;20886;-65
2023/07/30 05:38:49;;;;;;;31.07;6.03;;;27.00;53.80;;;;;;5039766;27;20189;-64
2023/07/30 05:41:15;;;;;;;28.20;5.70;;;27.00;53.80;;;;;;5026853;28;20545;-67
2023/07/30 05:43:42;;;;;;;26.43;5.53;;;26.90;54.40;;;;;;5027529;28;20205;-72
2023/07/30 05:46:09;;;;;;;22.20;5.03;;;27.00;53.90;;;;;;5020937;28;20201;-77
2023/07/30 05:48:36;;;;;;;23.43;5.13;;;27.00;53.90;;;;;;5006842;28;20206;-72
2023/07/30 05:51:03;;;;;;;40.53;6.97;;;27.00;53.90;;;;;;5008511;28;20214;-70
2023/07/30 05:53:30;;;;;;;29.30;5.87;;;27.00;53.90;;;;;;5026964;28;20229;-67
2023/07/30 05:55:59;;;;;;;36.77;6.83;;;27.00;53.90;;;;;;5026784;28;20295;-72
2023/07/30 05:58:25;;;;;;;26.23;5.50;;;27.00;53.90;;;;;;5027333;28;20205;-68
2023/07/30 06:00:52;;;;;;;22.73;5.47;;;26.90;53.90;;;;;;5026651;28;20221;-65
2023/07/30 06:03:19;;;;;;;32.03;5.70;;;26.90;54.50;;;;;;5026456;28;20293;-67
2023/07/30 06:05:46;;;;;;;28.73;5.53;;;26.90;53.90;;;;;;5026975;28;20193;-75
2023/07/30 06:08:13;;;;;;;28.50;5.67;;;26.90;53.90;;;;;;5025613;28;20200;-78
2023/07/30 06:10:41;;;;;;;30.03;5.87;;;26.90;54.00;;;;;;5025514;28;20211;-69
2023/07/30 06:13:09;;;;;;;21.10;5.17;;;26.90;54.00;;;;;;5025517;28;20812;-70
2023/07/30 06:15:36;;;;;;;44.27;7.43;;;26.90;53.90;;;;;;5029945;28;20205;-64
2023/07/30 06:18:03;;;;;;;24.77;5.87;;;26.90;53.90;;;;;;5029441;28;20219;-65
2023/07/30 06:20:30;;;;;;;30.03;6.37;;;26.80;53.90;;;;;;5044785;28;20200;-65
2023/07/30 06:22:57;;;;;;;26.87;5.53;;;26.90;54.00;;;;;;5039797;28;20224;-64
2023/07/30 06:25:24;;;;;;;23.50;5.40;;;26.90;54.00;;;;;;5045200;28;20208;-64
2023/07/30 06:27:51;;;;;;;51.00;7.67;;;26.90;54.00;;;;;;5030146;28;20216;-65
2023/07/30 06:30:19;;;;;;;28.33;6.27;;;26.90;54.00;;;;;;5044857;28;20288;-64
2023/07/30 06:32:46;;;;;;;24.30;5.60;;;26.90;54.00;;;;;;5045301;28;20668;-64
2023/07/30 06:35:13;;;;;;;28.60;5.60;;;26.90;54.00;;;;;;5046786;28;20596;-64
2023/07/30 06:37:40;;;;;;;24.23;5.60;;;26.90;54.00;;;;;;5046735;28;20205;-65
2023/07/30 06:40:08;;;;;;;39.53;6.77;;;26.90;54.00;;;;;;5045716;28;20211;-65
2023/07/30 06:42:35;;;;;;;21.63;5.60;;;26.90;54.00;;;;;;5045863;28;20327;-64
2023/07/30 06:45:02;;;;;;;30.03;5.93;;;26.80;54.00;;;;;;5039666;28;20224;-65
2023/07/30 06:47:30;;;;;;;27.17;5.83;;;26.90;54.00;;;;;;5025761;28;20200;-65
2023/07/30 06:49:57;;;;;;;23.30;5.43;;;26.90;54.00;;;;;;5026112;28;20209;-65
2023/07/30 06:52:23;;;;;;;32.67;5.93;;;26.90;54.00;;;;;;5027205;28;20224;-64
2023/07/30 06:54:50;;;;;;;27.27;5.60;;;26.90;54.10;;;;;;5025647;28;20215;-67
2023/07/30 06:57:17;;;;;;;25.70;5.93;;;26.90;54.10;;;;;;5025718;28;20774;-67
2023/07/30 06:59:44;;;;;;;35.93;6.37;;;26.90;54.10;;;;;;5025647;28;20220;-65
2023/07/30 07:02:11;;;;;;;35.40;6.23;;;26.80;54.00;;;;;;5025851;28;20704;-65
2023/07/30 07:04:39;;;;;;;28.87;5.67;;;26.80;54.00;;;;;;5025696;28;20215;-64
2023/07/30 07:07:06;;;;;;;19.47;4.83;;;26.80;54.00;;;;;;5026361;28;20216;-65
2023/07/30 07:09:33;;;;;;;32.80;6.07;;;26.80;54.00;;;;;;5026089;28;20196;-64
2023/07/30 07:12:00;;;;;;;43.40;7.23;;;26.80;54.00;;;;;;5061688;27;20203;-68
2023/07/30 07:14:27;;;;;;;43.00;7.10;;;26.80;54.00;;;;;;5025949;28;20197;-64
2023/07/30 07:16:55;;;;;;;26.70;5.73;;;26.90;54.10;;;;;;5025384;28;20696;-67
2023/07/30 07:19:22;;;;;;;31.93;6.10;;;26.80;54.10;;;;;;5026169;28;20242;-65
2023/07/30 07:21:51;;;;;;;29.37;5.80;;;26.80;54.10;;;;;;5029845;27;20640;-64
2023/07/30 07:24:18;;;;;;;27.33;6.00;;;26.80;54.00;;;;;;5027331;28;20564;-67
2023/07/30 07:26:45;;;;;;;28.60;5.77;;;26.80;54.10;;;;;;5023819;28;20209;-65
2023/07/30 07:29:12;;;;;;;29.67;5.73;;;26.80;54.10;;;;;;5023566;28;20204;-64
2023/07/30 07:31:39;;;;;;;25.77;5.33;;;26.80;54.10;;;;;;5024144;28;20209;-65
2023/07/30 07:34:06;;;;;;;28.73;6.10;;;26.80;54.10;;;;;;5024518;28;20204;-64
2023/07/30 07:36:32;;;;;;;38.57;6.97;;;26.90;54.10;;;;;;5022412;28;20208;-64
2023/07/30 07:39:01;;;;;;;30.30;6.07;;;26.90;54.10;;;;;;5025381;28;20201;-68
2023/07/30 07:41:28;;;;;;;26.67;5.27;;;26.80;54.10;;;;;;5024571;28;20208;-64
2023/07/30 07:43:55;;;;;;;33.50;6.33;;;26.80;54.10;;;;;;5023356;28;20232;-69
2023/07/30 07:46:22;;;;;;;32.20;5.93;;;26.90;54.10;;;;;;5024273;28;20641;-65
2023/07/30 07:48:49;;;;;;;24.37;5.37;;;26.80;54.10;;;;;;5035883;28;20200;-65
2023/07/30 07:51:15;;;;;;;38.87;6.90;;;26.80;54.10;;;;;;5032434;28;20718;-65
2023/07/30 07:53:42;;;;;;;32.47;6.13;;;26.80;54.10;;;;;;5029855;28;20217;-66
2023/07/30 07:56:11;;;;;;;25.10;5.30;;;26.90;54.20;;;;;;5024797;28;20200;-65
2023/07/30 07:58:37;;;;;;;21.57;5.10;;;26.80;54.10;;;;;;5023845;28;20208;-65
2023/07/30 08:01:04;;;;;;;28.13;6.20;;;26.90;54.20;;;;;;5023033;28;20201;-65
2023/07/30 08:03:31;;;;;;;25.50;5.40;;;26.90;54.20;;;;;;5024365;28;20800;-64
2023/07/30 08:05:58;;;;;;;20.33;4.90;;;26.90;54.20;;;;;;5023810;28;20201;-64
2023/07/30 08:08:25;;;;;;;26.50;5.23;;;26.90;54.10;;;;;;5025308;28;20196;-65
2023/07/30 08:10:52;;;;;;;44.17;7.27;;;26.90;54.10;;;;;;5023296;28;20542;-64
2023/07/30 08:13:21;;;;;;;22.57;5.13;;;26.90;54.10;;;;;;5022621;28;20216;-64
2023/07/30 08:15:48;;;;;;;32.20;6.07;;;26.90;54.10;;;;;;5023576;28;20200;-64
2023/07/30 08:18:14;;;;;;;29.87;5.77;;;27.00;54.20;;;;;;5023402;28;20204;-65
2023/07/30 08:20:41;;;;;;;26.10;5.40;;;26.90;54.10;;;;;;5023657;28;20201;-65
2023/07/30 08:23:08;;;;;;;24.97;5.20;;;26.90;54.10;;;;;;5036256;28;20231;-66
2023/07/30 08:25:35;;;;;;;31.50;6.23;;;26.90;54.20;;;;;;5037234;28;20208;-65
2023/07/30 08:28:02;;;;;;;23.17;4.93;;;26.90;54.20;;;;;;5023305;28;20193;-64
2023/07/30 08:30:30;;;;;;;24.87;5.70;;;27.00;54.20;;;;;;5037419;28;20235;-64
2023/07/30 08:32:57;;;;;;;27.27;5.60;;;27.00;54.20;;;;;;5032001;28;20219;-64
2023/07/30 08:35:24;;;;;;;24.70;5.00;;;27.00;54.20;;;;;;5044604;28;20204;-64
2023/07/30 08:37:50;;;;;;;28.10;5.80;;;27.00;54.20;;;;;;5028806;28;20205;-65
2023/07/30 08:40:17;;;;;;;23.23;4.93;;;27.00;54.20;;;;;;5025102;28;20212;-64
2023/07/30 08:42:44;;;;;;;31.17;5.87;;;27.10;54.30;;;;;;5027519;28;20715;-65
2023/07/30 08:45:11;;;;;;;20.80;5.00;;;27.00;54.20;;;;;;5027950;28;20213;-69
2023/07/30 08:47:41;;;;;;;22.40;5.07;;;27.10;54.30;;;;;;5027898;28;20207;-65
2023/07/30 08:50:08;;;;;;;26.83;5.53;;;27.10;54.30;;;;;;5028500;28;20232;-66
2023/07/30 08:52:36;;;;;;;23.13;5.17;;;27.10;54.30;;;;;;5032317;28;20230;-67
2023/07/30 08:55:05;;;;;;;23.83;4.93;;;27.10;54.30;;;;;;5047746;28;20204;-78
2023/07/30 08:57:32;;;;;;;33.10;6.07;;;27.10;54.30;;;;;;5035249;27;20201;-64
2023/07/30 09:00:03;;;;;;;29.23;5.70;;;27.10;54.30;;;;;;5131696;27;20668;-64
2023/07/30 09:02:34;;;;;;;24.40;5.00;;;27.20;54.40;;;;;;5051775;27;20561;-65
2023/07/30 09:05:04;;;;;;;31.63;5.93;;;27.20;54.30;;;;;;5047323;28;20211;-65
2023/07/30 09:07:31;;;;;;;24.73;5.37;;;27.20;54.30;;;;;;5046730;28;20310;-65
2023/07/30 09:09:58;;;;;;;42.53;6.83;;;27.20;54.40;;;;;;5044118;28;20199;-66
2023/07/30 09:12:29;;;;;;;25.00;5.30;;;27.20;54.30;;;;;;5026145;28;20201;-64
2023/07/30 09:14:56;;;;;;;38.77;6.57;;;27.20;54.30;;;;;;5025007;28;20291;-67
2023/07/30 09:17:23;;;;;;;26.80;5.57;;;27.30;54.40;;;;;;5027269;27;20197;-65
2023/07/30 09:19:51;;;;;;;39.73;6.50;;;27.30;54.40;;;;;;5027470;28;20760;-65
2023/07/30 09:22:26;;;;;;;30.57;5.63;;;27.30;54.40;;;;;;5044373;28;20326;-65
2023/07/30 09:24:53;;;;;;;41.13;6.50;;;27.30;54.40;;;;;;5027711;28;20238;-64
2023/07/30 09:27:25;;;;;;;36.33;6.53;;;27.30;54.40;;;;;;5027402;28;20277;-66
2023/07/30 09:29:53;;;;;;;33.60;5.93;;;27.40;54.50;;;;;;5025305;28;20241;-64
2023/07/30 09:32:20;;;;;;;41.10;6.53;;;27.40;54.50;;;;;;5026809;28;20258;-64
2023/07/30 09:34:47;;;;;;;22.83;4.67;;;27.40;54.50;;;;;;5026176;28;20664;-64
2023/07/30 09:37:15;;;;;;;34.53;6.10;;;27.50;54.50;;;;;;5024623;28;20197;-68
2023/07/30 09:39:44;;;;;;;25.97;5.50;;;27.50;54.40;;;;;;5026482;28;20200;-66
2023/07/30 09:42:11;;;;;;;24.80;5.40;;;27.60;54.40;;;;;;5026912;28;20205;-66
2023/07/30 09:44:40;;;;;;;25.63;5.23;;;27.60;54.40;;;;;;5026778;28;20666;-67
2023/07/30 09:47:10;;;;;;;24.07;4.73;;;27.60;54.30;;;;;;5026720;28;20629;-66
2023/07/30 09:49:37;;;;;;;23.17;4.90;;;27.60;54.30;;;;;;5036782;28;20200;-66
2023/07/30 09:52:05;;;;;;;38.93;6.43;;;27.60;54.30;;;;;;5045629;28;20236;-67
2023/07/30 09:54:33;;;;;;;23.63;4.90;;;27.70;54.20;;;;;;5046762;27;20264;-67
2023/07/30 09:57:01;;;;;;;19.67;4.70;;;27.70;54.20;;;;;;5046814;28;20699;-66
2023/07/30 09:59:28;;;;;;;32.37;5.50;;;27.70;54.20;;;;;;5023781;27;20211;-65
2023/07/30 10:01:58;;;;;;;23.00;4.97;;;27.70;54.20;;;;;;5025862;28;20201;-65
2023/07/30 10:04:25;;;;;;;26.27;5.40;;;27.80;54.20;;;;;;5026369;28;20274;-64
2023/07/30 10:06:58;;;;;;;23.97;4.77;;;27.80;54.20;;;;;;5026353;28;20341;-65
2023/07/30 10:09:32;;;;;;;22.27;4.60;;;27.80;54.10;;;;;;5022493;28;20201;-65
2023/07/30 10:12:03;;;;;;;21.77;4.80;;;27.80;54.00;;;;;;5018005;28;20205;-66
2023/07/30 10:14:30;;;;;;;33.77;5.83;;;27.90;54.10;;;;;;5025581;28;20205;-67
2023/07/30 10:17:00;;;;;;;19.17;4.50;;;27.90;54.10;;;;;;5026149;28;20204;-67
2023/07/30 10:19:28;;;;;;;22.37;4.67;;;27.90;54.00;;;;;;5024441;28;20212;-67
2023/07/30 10:21:59;;;;;;;31.33;5.40;;;27.90;54.00;;;;;;5026282;28;20669;-66
2023/07/30 10:24:27;;;;;;;32.83;5.83;;;27.90;54.00;;;;;;5024779;28;20951;-65
2023/07/30 10:26:57;;;;;;;20.13;4.70;;;27.90;53.90;;;;;;5026596;28;20209;-66
2023/07/30 10:29:25;;;;;;;27.73;5.20;;;27.90;53.80;;;;;;5026785;28;20321;-65
2023/07/30 10:31:55;;;;;;;24.30;4.90;;;28.00;53.90;;;;;;5026100;28;20205;-65
2023/07/30 10:34:22;;;;;;;28.97;5.30;;;28.00;53.90;;;;;;5024835;28;20214;-65
2023/07/30 10:36:51;;;;;;;28.90;5.43;;;28.00;53.90;;;;;;5025978;28;20209;-65
2023/07/30 10:39:20;;;;;;;27.60;5.10;;;28.00;53.90;;;;;;5023751;28;20203;-66
2023/07/30 10:41:49;;;;;;;27.10;5.33;;;28.00;53.90;;;;;;5026166;28;20223;-64
2023/07/30 10:44:22;;;;;;;29.63;5.63;;;28.00;53.90;;;;;;5032528;28;20564;-64
2023/07/30 10:46:50;;;;;;;21.17;4.47;;;28.10;53.80;;;;;;5025836;28;20228;-65
2023/07/30 10:49:17;;;;;;;20.20;4.60;;;28.10;53.80;;;;;;5025977;28;20200;-65
2023/07/30 10:51:44;;;;;;;31.37;5.77;;;28.10;53.80;;;;;;5025442;28;20236;-67
2023/07/30 10:54:11;;;;;;;36.63;6.13;;;28.10;53.80;;;;;;5026121;28;20201;-64
2023/07/30 10:56:40;;;;;;;23.27;5.00;;;28.20;53.80;;;;;;5024912;28;20654;-64
2023/07/30 10:59:07;;;;;;;25.33;4.77;;;28.20;53.80;;;;;;5026251;28;20284;-66
2023/07/30 11:01:39;;;;;;;31.33;5.70;;;28.20;53.80;;;;;;5025560;28;20289;-64
2023/07/30 11:04:12;;;;;;;25.53;5.23;;;28.20;53.70;;;;;;5024842;28;20220;-64
2023/07/30 11:06:39;;;;;;;30.83;5.67;;;28.20;53.70;;;;;;5023393;28;20676;-64
2023/07/30 11:09:18;;;;;;;29.33;5.43;;;28.20;53.70;;;;;;5024776;28;20212;-64
2023/07/30 11:11:45;;;;;;;42.30;6.47;;;28.20;53.60;;;;;;5023436;28;20215;-66
2023/07/30 11:14:16;;;;;;;30.63;5.77;;;28.30;53.60;;;;;;5025661;28;20201;-64
2023/07/30 11:16:49;;;;;;;22.30;4.70;;;28.30;53.60;;;;;;5024347;28;20209;-66
2023/07/30 11:19:18;;;;;;;25.23;5.00;;;28.30;53.60;;;;;;5025275;28;20265;-64
2023/07/30 11:21:48;;;;;;;30.83;5.67;;;28.30;53.60;;;;;;5024556;28;20605;-65
2023/07/30 11:24:15;;;;;;;26.33;5.07;;;28.40;53.80;;;;;;5026435;28;20704;-65
2023/07/30 11:26:42;;;;;;;37.30;6.03;;;28.40;53.80;;;;;;5031341;28;20249;-65
2023/07/30 11:29:16;;;;;;;31.83;5.73;;;28.50;53.70;;;;;;5032632;28;20211;-65
2023/07/30 11:31:44;;;;;;;28.83;5.43;;;28.60;53.80;;;;;;5025142;28;20216;-66
2023/07/30 11:34:11;;;;;;;24.50;5.13;;;28.60;53.80;;;;;;5025559;28;20204;-72
2023/07/30 11:36:41;;;;;;;28.70;5.47;;;28.70;53.90;;;;;;5023387;28;20201;-67
2023/07/30 11:39:08;;;;;;;19.63;4.57;;;28.70;53.80;;;;;;5025375;28;20204;-67
2023/07/30 11:41:36;;;;;;;24.60;5.03;;;28.80;53.80;;;;;;5025194;28;20660;-72
2023/07/30 11:44:03;;;;;;;33.33;6.07;;;28.90;53.60;;;;;;5024969;28;20561;-77
2023/07/30 11:46:33;;;;;;;26.37;5.50;;;29.00;53.60;;;;;;5024110;28;20205;-66
2023/07/30 11:49:12;;;;;;;25.20;5.20;;;29.10;53.60;;;;;;5024582;28;20201;-66
2023/07/30 11:51:41;;;;;;;24.13;4.87;;;29.10;53.50;;;;;;5024487;28;20660;-66
2023/07/30 11:54:09;;;;;;;20.10;4.30;;;29.30;53.60;;;;;;5024779;28;20234;-64
2023/07/30 11:56:36;;;;;;;18.60;4.57;;;29.30;53.40;;;;;;5030349;28;20201;-65
2023/07/30 11:59:06;;;;;;;25.03;5.33;;;29.50;53.50;;;;;;5025012;28;20209;-64
2023/07/30 12:01:36;;;;;;;22.07;4.93;;;29.60;53.60;;;;;;5024591;28;20240;-64
2023/07/30 12:04:05;;;;;;;32.20;5.97;;;29.60;53.60;;;;;;5024566;28;20583;-64
2023/07/30 12:06:43;;;;;;;28.33;5.50;;;29.80;53.70;;;;;;5024074;28;20203;-64
2023/07/30 12:09:12;;;;;;;19.07;4.47;;;30.00;53.40;;;;;;5024937;28;20968;-64
2023/07/30 12:11:45;;;;;;;30.93;5.50;;;30.10;53.20;;;;;;5024514;28;20618;-64
2023/07/30 12:14:12;;;;;;;22.43;4.97;;;30.20;52.60;;;;;;5024987;28;20208;-66
2023/07/30 12:16:39;;;;;;;35.23;6.23;;;30.30;52.70;;;;;;5026482;28;20204;-64
2023/07/30 12:19:06;;;;;;;25.97;5.10;;;30.40;52.60;;;;;;5008370;28;20220;-64
2023/07/30 12:21:33;;;;;;;22.53;5.03;;;30.50;52.30;;;;;;5008484;28;20205;-64
2023/07/30 12:24:01;;;;;;;24.50;5.30;;;30.60;52.30;;;;;;5008404;28;20213;-64
2023/07/30 12:26:28;;;;;;;16.43;4.93;;;30.70;52.20;;;;;;5038233;28;20669;-64
2023/07/30 12:28:55;;;;;;;27.47;5.40;;;30.70;52.60;;;;;;5028005;28;20205;-64
2023/07/30 12:31:22;;;;;;;24.10;4.87;;;30.90;52.30;;;;;;5027888;28;20582;-68
2023/07/30 12:33:49;;;;;;;24.17;5.20;;;30.90;52.10;;;;;;5027997;28;20208;-64
2023/07/30 12:36:15;;;;;;;30.47;6.00;;;31.00;52.10;;;;;;5028034;28;20189;-65
2023/07/30 12:38:42;;;;;;;34.13;6.20;;;31.10;52.10;;;;;;5027189;28;20204;-65